Time,TemperatureF,DewpointF,PressureIn,WindDirection,WindDirectionDegrees,WindSpeedMPH,WindSpeedGustMPH,Humidity,HourlyPrecipIn,Conditions,Clouds,dailyrainin,SolarRadiationWatts/m^2,SoftwareType,DateUTC
2013-07-23 00:08:00,67.1,64.0,29.81,SE,138,0.0,1.0,90,0.00,,,0.00,0,weatherlink.com 1.10,2013-07-23 04:08:00,
2013-07-23 00:23:00,67.1,64.0,29.81,East,84,1.0,2.0,90,0.00,,,0.00,0,weatherlink.com 1.10,2013-07-23 04:23:00,
2013-07-23 00:38:00,67.2,64.0,29.80,ESE,109,0.0,3.0,90,0.00,,,0.00,0,weatherlink.com 1.10,2013-07-23 04:38:00,
2013-07-23 00:53:00,67.1,64.0,29.80,ESE,117,0.0,3.0,90,0.00,,,0.00,0,weatherlink.com 1.10,2013-07-23 04:53:00,
2013-07-23 01:08:00,67.0,64.0,29.79,ESE,105,1.0,3.0,90,0.00,,,0.00,0,weatherlink.com 1.10,2013-07-23 05:08:00,
2013-07-23 01:23:00,67.0,64.0,29.78,NNE,20,0.0,2.0,90,0.00,,,0.00,0,weatherlink.com 1.10,2013-07-23 05:23:00,
2013-07-23 01:38:00,67.0,64.0,29.78,SSW,194,0.0,2.0,91,0.00,,,0.00,0,weatherlink.com 1.10,2013-07-23 05:38:00,
2013-07-23 01:53:00,67.0,64.0,29.78,WNW,290,0.0,2.0,91,0.00,,,0.00,0,weatherlink.com 1.10,2013-07-23 05:53:00,
2013-07-23 02:08:00,66.7,64.0,29.77,WNW,292,0.0,3.0,92,0.00,,,0.00,0,weatherlink.com 1.10,2013-07-23 06:08:00,
2013-07-23 02:23:00,66.5,65.0,29.77,NNE,22,0.0,2.0,93,0.00,,,0.00,0,weatherlink.com 1.10,2013-07-23 06:23:00,
2013-07-23 02:38:00,66.2,65.0,29.77,NW,309,0.0,1.0,94,0.00,,,0.00,0,weatherlink.com 1.10,2013-07-23 06:38:00,
2013-07-23 02:53:00,66.1,64.0,29.76,NW,309,0.0,0.0,94,0.00,,,0.00,0,weatherlink.com 1.10,2013-07-23 06:53:00,
2013-07-23 03:08:00,65.9,64.0,29.75,NW,309,0.0,0.0,94,0.00,,,0.00,0,weatherlink.com 1.10,2013-07-23 07:08:00,
2013-07-23 03:23:00,65.7,64.0,29.75,NW,309,0.0,0.0,94,0.00,,,0.00,0,weatherlink.com 1.10,2013-07-23 07:23:00,
2013-07-23 03:38:00,65.7,64.0,29.74,NW,309,0.0,0.0,95,0.00,,,0.00,0,weatherlink.com 1.10,2013-07-23 07:38:00,
2013-07-23 03:53:00,65.6,64.0,29.73,NW,309,0.0,0.0,95,0.00,,,0.00,0,weatherlink.com 1.10,2013-07-23 07:53:00,
2013-07-23 04:08:00,65.4,64.0,29.73,East,81,0.0,1.0,95,0.00,,,0.00,0,weatherlink.com 1.10,2013-07-23 08:08:00,
2013-07-23 04:23:00,65.3,64.0,29.72,East,81,0.0,0.0,95,0.00,,,0.00,0,weatherlink.com 1.10,2013-07-23 08:23:00,
2013-07-23 04:38:00,65.0,64.0,29.72,SSE,157,0.0,1.0,95,0.00,,,0.00,0,weatherlink.com 1.10,2013-07-23 08:38:00,
2013-07-23 04:53:00,64.8,63.0,29.71,SSE,157,0.0,0.0,95,0.00,,,0.00,0,weatherlink.com 1.10,2013-07-23 08:53:00,
2013-07-23 05:08:00,64.7,63.0,29.71,SSE,157,0.0,0.0,95,0.00,,,0.00,0,weatherlink.com 1.10,2013-07-23 09:08:00,
2013-07-23 05:23:00,64.5,63.0,29.71,SSE,157,0.0,0.0,95,0.00,,,0.00,0,weatherlink.com 1.10,2013-07-23 09:23:00,
2013-07-23 05:38:00,64.4,63.0,29.71,SSE,157,0.0,0.0,95,0.00,,,0.00,0,weatherlink.com 1.10,2013-07-23 09:38:00,
2013-07-23 05:53:00,64.2,63.0,29.71,SSE,157,0.0,1.0,95,0.00,,,0.00,0,weatherlink.com 1.10,2013-07-23 09:53:00,
2013-07-23 06:08:00,64.1,63.0,29.71,SSE,157,0.0,0.0,95,0.00,,,0.00,5,weatherlink.com 1.10,2013-07-23 10:08:00,
2013-07-23 06:23:00,64.1,63.0,29.70,SSE,157,0.0,0.0,95,0.00,,,0.00,11,weatherlink.com 1.10,2013-07-23 10:23:00,
2013-07-23 06:38:00,64.1,63.0,29.70,SSE,157,0.0,0.0,95,0.00,,,0.00,21,weatherlink.com 1.10,2013-07-23 10:38:00,
2013-07-23 06:53:00,64.3,63.0,29.69,SSE,157,0.0,0.0,95,0.00,,,0.00,18,weatherlink.com 1.10,2013-07-23 10:53:00,
2013-07-23 07:08:00,64.5,63.0,29.69,SSE,157,0.0,0.0,96,0.00,,,0.00,14,weatherlink.com 1.10,2013-07-23 11:08:00,
2013-07-23 07:23:00,64.5,63.0,29.68,SSE,157,0.0,0.0,95,0.00,,,0.00,21,weatherlink.com 1.10,2013-07-23 11:23:00,
2013-07-23 07:38:00,64.6,63.0,29.68,SSE,157,0.0,0.0,95,0.00,,,0.00,39,weatherlink.com 1.10,2013-07-23 11:38:00,
2013-07-23 07:54:00,64.8,63.0,29.67,SSE,157,0.0,0.0,95,0.00,,,0.00,53,weatherlink.com 1.10,2013-07-23 11:54:00,
2013-07-23 08:09:00,65.1,64.0,29.66,SSE,157,0.0,0.0,96,0.00,,,0.00,40,weatherlink.com 1.10,2013-07-23 12:09:00,
2013-07-23 08:24:00,65.2,64.0,29.66,SSE,157,0.0,0.0,95,0.00,,,0.00,62,weatherlink.com 1.10,2013-07-23 12:24:00,
2013-07-23 08:39:00,65.2,64.0,29.66,SSE,157,0.0,0.0,95,0.00,,,0.00,72,weatherlink.com 1.10,2013-07-23 12:39:00,
2013-07-23 08:54:00,64.9,63.0,29.65,SSE,157,0.0,0.0,94,0.00,,,0.00,56,weatherlink.com 1.10,2013-07-23 12:54:00,
2013-07-23 09:09:00,65.3,64.0,29.64,SSE,157,0.0,0.0,94,0.00,,,0.00,127,weatherlink.com 1.10,2013-07-23 13:09:00,
2013-07-23 09:24:00,66.0,65.0,29.64,SSE,157,0.0,0.0,95,0.00,,,0.00,102,weatherlink.com 1.10,2013-07-23 13:24:00,
2013-07-23 09:39:00,66.4,65.0,29.63,SSE,157,0.0,0.0,94,0.00,,,0.00,53,weatherlink.com 1.10,2013-07-23 13:39:00,
2013-07-23 09:54:00,66.6,65.0,29.62,SSE,157,0.0,0.0,94,0.00,,,0.00,69,weatherlink.com 1.10,2013-07-23 13:54:00,
2013-07-23 10:09:00,66.7,65.0,29.62,WNW,300,0.0,1.0,94,0.00,,,0.00,118,weatherlink.com 1.10,2013-07-23 14:09:00,
2013-07-23 10:25:00,66.6,65.0,29.61,WNW,296,0.0,3.0,94,0.00,,,0.00,109,weatherlink.com 1.10,2013-07-23 14:25:00,
2013-07-23 10:39:00,66.8,65.0,29.61,WNW,298,1.0,3.0,94,0.00,,,0.00,105,weatherlink.com 1.10,2013-07-23 14:39:00,
2013-07-23 10:54:00,66.7,65.0,29.61,WNW,298,0.0,0.0,94,0.00,,,0.00,60,weatherlink.com 1.10,2013-07-23 14:54:00,
2013-07-23 11:09:00,66.6,65.0,29.60,WNW,298,1.0,2.0,94,0.00,,,0.00,102,weatherlink.com 1.10,2013-07-23 15:09:00,
2013-07-23 11:24:00,66.5,65.0,29.60,WNW,296,0.0,2.0,93,0.00,,,0.00,125,weatherlink.com 1.10,2013-07-23 15:24:00,
2013-07-23 11:39:00,66.5,65.0,29.59,NNW,327,1.0,3.0,93,0.00,,,0.00,134,weatherlink.com 1.10,2013-07-23 15:39:00,
2013-07-23 11:54:00,66.5,65.0,29.59,NW,317,0.0,2.0,93,0.00,,,0.00,77,weatherlink.com 1.10,2013-07-23 15:54:00,
2013-07-23 12:09:00,66.4,65.0,29.59,WNW,301,2.0,3.0,94,0.00,,,0.00,77,weatherlink.com 1.10,2013-07-23 16:09:00,
2013-07-23 12:24:00,66.3,65.0,29.58,WNW,303,0.0,2.0,94,0.00,,,0.00,76,weatherlink.com 1.10,2013-07-23 16:24:00,
2013-07-23 12:39:00,66.7,65.0,29.58,NW,304,1.0,1.0,95,0.00,,,0.00,169,weatherlink.com 1.10,2013-07-23 16:39:00,
2013-07-23 12:54:00,67.4,66.0,29.58,WSW,252,0.0,2.0,95,0.00,,,0.00,195,weatherlink.com 1.10,2013-07-23 16:54:00,
2013-07-23 13:09:00,68.1,66.0,29.57,WNW,300,2.0,3.0,94,0.00,,,0.00,244,weatherlink.com 1.10,2013-07-23 17:09:00,
2013-07-23 13:24:00,68.6,66.0,29.57,North,5,0.0,2.0,90,0.00,,,0.00,186,weatherlink.com 1.10,2013-07-23 17:24:00,
2013-07-23 13:39:00,69.0,66.0,29.56,ENE,59,0.0,0.0,90,0.00,,,0.00,176,weatherlink.com 1.10,2013-07-23 17:39:00,
2013-07-23 13:54:00,69.8,67.0,29.56,ENE,59,0.0,1.0,91,0.00,,,0.00,214,weatherlink.com 1.10,2013-07-23 17:54:00,
2013-07-23 14:09:00,70.0,67.0,29.55,NW,306,0.0,1.0,89,0.00,,,0.00,239,weatherlink.com 1.10,2013-07-23 18:09:00,
2013-07-23 14:24:00,70.5,66.0,29.55,WNW,296,0.0,2.0,86,0.00,,,0.00,438,weatherlink.com 1.10,2013-07-23 18:24:00,
2013-07-23 14:39:00,70.8,67.0,29.55,WNW,297,0.0,2.0,86,0.00,,,0.00,334,weatherlink.com 1.10,2013-07-23 18:39:00,
2013-07-23 14:55:00,72.6,68.0,29.54,WNW,297,3.0,4.0,86,0.00,,,0.00,896,weatherlink.com 1.10,2013-07-23 18:55:00,
2013-07-23 15:10:00,72.8,68.0,29.54,West,279,2.0,3.0,85,0.00,,,0.00,248,weatherlink.com 1.10,2013-07-23 19:10:00,
2013-07-23 15:40:00,72.6,68.0,29.53,WNW,282,0.0,0.0,85,0.00,,,0.00,188,weatherlink.com 1.10,2013-07-23 19:40:00,
2013-07-23 15:55:00,72.2,68.0,29.53,WNW,282,0.0,0.0,86,0.00,,,0.00,148,weatherlink.com 1.10,2013-07-23 19:55:00,
2013-07-23 16:10:00,71.7,68.0,29.54,ESE,102,0.0,0.0,87,0.00,,,0.00,114,weatherlink.com 1.10,2013-07-23 20:10:00,
2013-07-23 16:25:00,71.7,67.0,29.53,SW,219,0.0,1.0,86,0.00,,,0.00,162,weatherlink.com 1.10,2013-07-23 20:25:00,
2013-07-23 16:55:00,72.1,68.0,29.52,East,91,1.0,6.0,86,0.00,,,0.00,172,weatherlink.com 1.10,2013-07-23 20:55:00,
2013-07-23 17:10:00,72.0,66.0,29.51,NNW,336,0.0,1.0,81,0.00,,,0.00,54,weatherlink.com 1.10,2013-07-23 21:10:00,
2013-07-23 17:25:00,72.1,67.0,29.52,ESE,111,1.0,2.0,83,0.00,,,0.00,53,weatherlink.com 1.10,2013-07-23 21:25:00,
2013-07-23 17:40:00,72.1,67.0,29.52,NW,309,0.0,2.0,85,0.00,,,0.00,49,weatherlink.com 1.10,2013-07-23 21:40:00,
2013-07-23 18:10:00,72.0,67.0,29.50,East,87,0.0,2.0,83,0.00,,,0.00,42,weatherlink.com 1.10,2013-07-23 22:10:00,
2013-07-23 18:25:00,71.9,68.0,29.51,ESE,106,0.0,2.0,86,0.00,,,0.00,42,weatherlink.com 1.10,2013-07-23 22:25:00,
2013-07-23 18:55:00,71.2,67.0,29.50,ESE,111,0.0,1.0,87,0.00,,,0.00,42,weatherlink.com 1.10,2013-07-23 22:55:00,
2013-07-23 19:10:00,70.6,67.0,29.51,ESE,107,0.0,0.0,88,0.00,,,0.00,30,weatherlink.com 1.10,2013-07-23 23:10:00,
2013-07-23 19:55:00,68.7,66.0,29.49,ESE,107,0.0,0.0,91,0.00,,,0.00,12,weatherlink.com 1.10,2013-07-23 23:55:00,
2013-07-23 20:10:00,68.2,66.0,29.50,ESE,107,0.0,0.0,92,0.00,,,0.00,5,weatherlink.com 1.10,2013-07-24 00:10:00,
2013-07-23 20:25:00,67.7,65.0,29.51,ESE,107,0.0,0.0,92,0.00,,,0.00,0,weatherlink.com 1.10,2013-07-24 00:25:00,
2013-07-23 20:40:00,67.2,65.0,29.51,ESE,107,0.0,0.0,93,0.00,,,0.00,0,weatherlink.com 1.10,2013-07-24 00:40:00,
2013-07-23 20:55:00,66.8,65.0,29.52,ESE,107,0.0,0.0,94,0.00,,,0.00,0,weatherlink.com 1.10,2013-07-24 00:55:00,
2013-07-23 21:10:00,66.4,65.0,29.52,ESE,107,0.0,0.0,94,0.00,,,0.00,0,weatherlink.com 1.10,2013-07-24 01:10:00,
2013-07-23 21:25:00,66.2,65.0,29.52,ESE,117,0.0,0.0,95,0.00,,,0.00,0,weatherlink.com 1.10,2013-07-24 01:25:00,
2013-07-23 21:40:00,65.9,64.0,29.52,ESE,117,0.0,0.0,94,0.00,,,0.00,0,weatherlink.com 1.10,2013-07-24 01:40:00,
2013-07-23 21:55:00,65.6,64.0,29.52,ESE,117,0.0,0.0,95,0.00,,,0.00,0,weatherlink.com 1.10,2013-07-24 01:55:00,
2013-07-23 22:10:00,65.3,64.0,29.52,ESE,117,0.0,0.0,95,0.00,,,0.00,0,weatherlink.com 1.10,2013-07-24 02:10:00,
2013-07-23 22:26:00,65.1,64.0,29.52,ESE,117,0.0,0.0,95,0.00,,,0.00,0,weatherlink.com 1.10,2013-07-24 02:26:00,
2013-07-23 22:40:00,64.9,64.0,29.52,ESE,117,0.0,0.0,95,0.00,,,0.00,0,weatherlink.com 1.10,2013-07-24 02:40:00,
2013-07-23 22:55:00,65.0,64.0,29.52,ESE,117,0.0,0.0,95,0.00,,,0.00,0,weatherlink.com 1.10,2013-07-24 02:55:00,
2013-07-23 23:25:00,64.3,63.0,29.52,ESE,117,0.0,0.0,95,0.00,,,0.00,0,weatherlink.com 1.10,2013-07-24 03:25:00,
2013-07-23 23:40:00,64.2,63.0,29.52,ESE,117,0.0,0.0,95,0.00,,,0.00,0,weatherlink.com 1.10,2013-07-24 03:40:00,
2013-07-23 23:55:00,64.2,63.0,29.52,ESE,117,0.0,0.0,96,0.00,,,0.00,0,weatherlink.com 1.10,2013-07-24 03:55:00,